sensor_id;sensor_type;location;lat;lon;timestamp;P1;durP1;ratioP1;P2;durP2;ratioP2
77022;SDS011;65952;51.440;-2.054;2023-05-07T00:00:09;13.85;;;6.85;;
77022;SDS011;65952;51.440;-2.054;2023-05-07T00:02:36;16.45;;;7.60;;
77022;SDS011;65952;51.440;-2.054;2023-05-07T00:05:02;18.80;;;7.30;;
77022;SDS011;65952;51.440;-2.054;2023-05-07T00:07:28;16.58;;;7.70;;
77022;SDS011;65952;51.440;-2.054;2023-05-07T00:09:53;19.27;;;7.70;;
77022;SDS011;65952;51.440;-2.054;2023-05-07T00:12:18;16.98;;;7.40;;
77022;SDS011;65952;51.440;-2.054;2023-05-07T00:14:44;23.02;;;8.40;;
77022;SDS011;65952;51.440;-2.054;2023-05-07T00:17:10;22.25;;;9.50;;
77022;SDS011;65952;51.440;-2.054;2023-05-07T00:19:36;17.48;;;7.78;;
77022;SDS011;65952;51.440;-2.054;2023-05-07T00:22:01;16.30;;;8.48;;
77022;SDS011;65952;51.440;-2.054;2023-05-07T00:24:27;18.42;;;8.57;;
77022;SDS011;65952;51.440;-2.054;2023-05-07T00:26:52;20.75;;;8.15;;
77022;SDS011;65952;51.440;-2.054;2023-05-07T00:29:17;16.98;;;8.55;;
77022;SDS011;65952;51.440;-2.054;2023-05-07T00:31:43;18.60;;;8.32;;
77022;SDS011;65952;51.440;-2.054;2023-05-07T00:34:08;17.80;;;7.72;;
77022;SDS011;65952;51.440;-2.054;2023-05-07T00:36:34;19.58;;;8.32;;
77022;SDS011;65952;51.440;-2.054;2023-05-07T00:38:59;18.27;;;8.95;;
77022;SDS011;65952;51.440;-2.054;2023-05-07T00:41:27;20.08;;;8.55;;
77022;SDS011;65952;51.440;-2.054;2023-05-07T00:43:52;20.60;;;8.65;;
77022;SDS011;65952;51.440;-2.054;2023-05-07T00:46:19;20.15;;;8.57;;
77022;SDS011;65952;51.440;-2.054;2023-05-07T00:48:45;18.73;;;8.32;;
77022;SDS011;65952;51.440;-2.054;2023-05-07T00:51:11;18.38;;;8.68;;
77022;SDS011;65952;51.440;-2.054;2023-05-07T00:53:37;20.25;;;8.77;;
77022;SDS011;65952;51.440;-2.054;2023-05-07T00:56:03;18.35;;;9.07;;
77022;SDS011;65952;51.440;-2.054;2023-05-07T00:58:30;22.30;;;9.70;;
77022;SDS011;65952;51.440;-2.054;2023-05-07T01:00:55;20.45;;;8.63;;
77022;SDS011;65952;51.440;-2.054;2023-05-07T01:03:21;19.63;;;9.85;;
77022;SDS011;65952;51.440;-2.054;2023-05-07T01:05:46;22.08;;;9.82;;
77022;SDS011;65952;51.440;-2.054;2023-05-07T01:08:13;18.85;;;9.38;;
77022;SDS011;65952;51.440;-2.054;2023-05-07T01:10:40;23.35;;;10.00;;
77022;SDS011;65952;51.440;-2.054;2023-05-07T01:13:08;23.55;;;9.82;;
77022;SDS011;65952;51.440;-2.054;2023-05-07T01:15:35;19.20;;;9.55;;
77022;SDS011;65952;51.440;-2.054;2023-05-07T01:18:00;23.85;;;8.68;;
77022;SDS011;65952;51.440;-2.054;2023-05-07T01:20:26;18.90;;;8.30;;
77022;SDS011;65952;51.440;-2.054;2023-05-07T01:22:53;16.70;;;8.43;;
77022;SDS011;65952;51.440;-2.054;2023-05-07T01:25:20;20.20;;;9.07;;
77022;SDS011;65952;51.440;-2.054;2023-05-07T01:27:45;24.38;;;9.73;;
77022;SDS011;65952;51.440;-2.054;2023-05-07T01:30:11;23.42;;;9.65;;
77022;SDS011;65952;51.440;-2.054;2023-05-07T01:35:21;29.98;;;11.82;;
77022;SDS011;65952;51.440;-2.054;2023-05-07T01:37:49;28.65;;;11.75;;
77022;SDS011;65952;51.440;-2.054;2023-05-07T01:40:15;25.40;;;10.93;;
77022;SDS011;65952;51.440;-2.054;2023-05-07T01:42:42;24.90;;;10.80;;
77022;SDS011;65952;51.440;-2.054;2023-05-07T01:45:08;24.80;;;10.57;;
77022;SDS011;65952;51.440;-2.054;2023-05-07T01:47:34;28.65;;;11.00;;
77022;SDS011;65952;51.440;-2.054;2023-05-07T01:50:01;32.10;;;12.20;;
77022;SDS011;65952;51.440;-2.054;2023-05-07T01:52:27;29.17;;;10.68;;
77022;SDS011;65952;51.440;-2.054;2023-05-07T01:54:53;33.13;;;11.80;;
77022;SDS011;65952;51.440;-2.054;2023-05-07T01:57:18;35.63;;;11.15;;
77022;SDS011;65952;51.440;-2.054;2023-05-07T01:59:44;30.88;;;10.82;;
77022;SDS011;65952;51.440;-2.054;2023-05-07T02:02:09;67.22;;;14.88;;
77022;SDS011;65952;51.440;-2.054;2023-05-07T02:04:34;58.70;;;14.27;;
77022;SDS011;65952;51.440;-2.054;2023-05-07T02:07:00;47.33;;;12.73;;
77022;SDS011;65952;51.440;-2.054;2023-05-07T02:09:25;42.53;;;13.07;;
77022;SDS011;65952;51.440;-2.054;2023-05-07T02:11:50;42.00;;;13.68;;
77022;SDS011;65952;51.440;-2.054;2023-05-07T02:14:16;45.15;;;12.18;;
77022;SDS011;65952;51.440;-2.054;2023-05-07T02:16:41;38.30;;;13.13;;
77022;SDS011;65952;51.440;-2.054;2023-05-07T02:19:07;41.60;;;12.73;;
77022;SDS011;65952;51.440;-2.054;2023-05-07T02:21:32;35.25;;;12.30;;
77022;SDS011;65952;51.440;-2.054;2023-05-07T02:23:57;45.10;;;13.52;;
77022;SDS011;65952;51.440;-2.054;2023-05-07T02:26:23;37.10;;;12.88;;
77022;SDS011;65952;51.440;-2.054;2023-05-07T02:28:48;39.83;;;12.93;;
77022;SDS011;65952;51.440;-2.054;2023-05-07T02:31:13;46.35;;;12.82;;
77022;SDS011;65952;51.440;-2.054;2023-05-07T02:33:39;39.78;;;12.27;;
77022;SDS011;65952;51.440;-2.054;2023-05-07T02:36:08;57.60;;;15.40;;
77022;SDS011;65952;51.440;-2.054;2023-05-07T02:38:34;52.63;;;14.18;;
77022;SDS011;65952;51.440;-2.054;2023-05-07T02:40:59;53.78;;;12.82;;
77022;SDS011;65952;51.440;-2.054;2023-05-07T02:43:25;60.75;;;14.05;;
77022;SDS011;65952;51.440;-2.054;2023-05-07T02:45:59;47.53;;;13.70;;
77022;SDS011;65952;51.440;-2.054;2023-05-07T02:48:29;37.78;;;11.45;;
77022;SDS011;65952;51.440;-2.054;2023-05-07T02:50:54;61.53;;;14.30;;
77022;SDS011;65952;51.440;-2.054;2023-05-07T02:53:19;59.35;;;14.40;;
77022;SDS011;65952;51.440;-2.054;2023-05-07T02:55:49;75.63;;;14.75;;
77022;SDS011;65952;51.440;-2.054;2023-05-07T02:58:17;95.60;;;16.05;;
77022;SDS011;65952;51.440;-2.054;2023-05-07T03:00:42;72.93;;;13.88;;
77022;SDS011;65952;51.440;-2.054;2023-05-07T03:03:08;157.55;;;21.02;;
77022;SDS011;65952;51.440;-2.054;2023-05-07T03:05:33;46.28;;;13.40;;
77022;SDS011;65952;51.440;-2.054;2023-05-07T03:07:58;55.58;;;14.93;;
77022;SDS011;65952;51.440;-2.054;2023-05-07T03:10:24;105.35;;;17.02;;
77022;SDS011;65952;51.440;-2.054;2023-05-07T03:12:49;33.50;;;10.82;;
77022;SDS011;65952;51.440;-2.054;2023-05-07T03:15:14;24.63;;;9.85;;
77022;SDS011;65952;51.440;-2.054;2023-05-07T03:17:40;27.27;;;9.57;;
77022;SDS011;65952;51.440;-2.054;2023-05-07T03:20:05;37.65;;;10.85;;
77022;SDS011;65952;51.440;-2.054;2023-05-07T03:22:31;23.40;;;9.80;;
77022;SDS011;65952;51.440;-2.054;2023-05-07T03:24:57;73.38;;;13.95;;
77022;SDS011;65952;51.440;-2.054;2023-05-07T03:27:22;91.40;;;16.05;;
77022;SDS011;65952;51.440;-2.054;2023-05-07T03:29:49;117.70;;;19.00;;
77022;SDS011;65952;51.440;-2.054;2023-05-07T03:32:14;46.08;;;12.82;;
77022;SDS011;65952;51.440;-2.054;2023-05-07T03:34:40;114.22;;;19.45;;
77022;SDS011;65952;51.440;-2.054;2023-05-07T03:37:05;54.20;;;14.18;;
77022;SDS011;65952;51.440;-2.054;2023-05-07T03:39:30;98.28;;;16.77;;
77022;SDS011;65952;51.440;-2.054;2023-05-07T03:41:57;81.28;;;14.82;;
77022;SDS011;65952;51.440;-2.054;2023-05-07T03:44:23;54.10;;;12.18;;
77022;SDS011;65952;51.440;-2.054;2023-05-07T03:46:48;43.90;;;11.63;;
77022;SDS011;65952;51.440;-2.054;2023-05-07T03:49:14;32.45;;;10.60;;
77022;SDS011;65952;51.440;-2.054;2023-05-07T03:51:39;22.58;;;9.98;;
77022;SDS011;65952;51.440;-2.054;2023-05-07T03:54:04;31.65;;;11.63;;
77022;SDS011;65952;51.440;-2.054;2023-05-07T03:56:30;23.70;;;9.90;;
77022;SDS011;65952;51.440;-2.054;2023-05-07T03:58:56;34.58;;;10.73;;
77022;SDS011;65952;51.440;-2.054;2023-05-07T04:01:21;42.20;;;11.57;;
77022;SDS011;65952;51.440;-2.054;2023-05-07T04:03:47;30.58;;;10.40;;
77022;SDS011;65952;51.440;-2.054;2023-05-07T04:06:12;36.70;;;10.40;;
77022;SDS011;65952;51.440;-2.054;2023-05-07T04:08:37;95.18;;;16.30;;
77022;SDS011;65952;51.440;-2.054;2023-05-07T04:11:03;65.45;;;13.38;;
77022;SDS011;65952;51.440;-2.054;2023-05-07T04:13:29;30.80;;;10.48;;
77022;SDS011;65952;51.440;-2.054;2023-05-07T04:15:55;35.75;;;9.10;;
77022;SDS011;65952;51.440;-2.054;2023-05-07T04:18:21;30.08;;;9.93;;
77022;SDS011;65952;51.440;-2.054;2023-05-07T04:20:47;31.58;;;9.32;;
77022;SDS011;65952;51.440;-2.054;2023-05-07T04:23:13;29.10;;;9.20;;
77022;SDS011;65952;51.440;-2.054;2023-05-07T04:25:38;64.65;;;12.52;;
77022;SDS011;65952;51.440;-2.054;2023-05-07T04:28:03;37.22;;;9.80;;
77022;SDS011;65952;51.440;-2.054;2023-05-07T04:30:29;88.40;;;13.93;;
77022;SDS011;65952;51.440;-2.054;2023-05-07T04:32:56;57.63;;;12.05;;
77022;SDS011;65952;51.440;-2.054;2023-05-07T04:35:21;70.18;;;12.10;;
77022;SDS011;65952;51.440;-2.054;2023-05-07T04:37:47;56.85;;;11.50;;
77022;SDS011;65952;51.440;-2.054;2023-05-07T04:40:12;36.95;;;10.07;;
77022;SDS011;65952;51.440;-2.054;2023-05-07T04:42:38;59.10;;;12.27;;
77022;SDS011;65952;51.440;-2.054;2023-05-07T04:45:03;129.10;;;17.35;;
77022;SDS011;65952;51.440;-2.054;2023-05-07T04:47:31;38.60;;;9.50;;
77022;SDS011;65952;51.440;-2.054;2023-05-07T04:49:57;76.68;;;13.18;;
77022;SDS011;65952;51.440;-2.054;2023-05-07T04:52:23;100.30;;;15.32;;
77022;SDS011;65952;51.440;-2.054;2023-05-07T04:54:48;31.45;;;8.98;;
77022;SDS011;65952;51.440;-2.054;2023-05-07T04:57:14;20.17;;;7.90;;
77022;SDS011;65952;51.440;-2.054;2023-05-07T04:59:39;20.85;;;8.18;;
77022;SDS011;65952;51.440;-2.054;2023-05-07T05:02:04;32.42;;;9.68;;
77022;SDS011;65952;51.440;-2.054;2023-05-07T05:04:30;51.03;;;10.25;;
77022;SDS011;65952;51.440;-2.054;2023-05-07T05:06:56;38.97;;;9.85;;
77022;SDS011;65952;51.440;-2.054;2023-05-07T05:09:21;50.72;;;11.07;;
77022;SDS011;65952;51.440;-2.054;2023-05-07T05:11:47;29.20;;;9.15;;
77022;SDS011;65952;51.440;-2.054;2023-05-07T05:14:12;64.97;;;12.25;;
77022;SDS011;65952;51.440;-2.054;2023-05-07T05:16:37;52.45;;;12.10;;
77022;SDS011;65952;51.440;-2.054;2023-05-07T05:19:03;25.90;;;9.80;;
77022;SDS011;65952;51.440;-2.054;2023-05-07T05:21:28;20.48;;;8.93;;
77022;SDS011;65952;51.440;-2.054;2023-05-07T05:23:54;28.83;;;9.65;;
77022;SDS011;65952;51.440;-2.054;2023-05-07T05:26:19;24.80;;;8.10;;
77022;SDS011;65952;51.440;-2.054;2023-05-07T05:28:46;27.60;;;9.20;;
77022;SDS011;65952;51.440;-2.054;2023-05-07T05:31:11;23.48;;;9.13;;
77022;SDS011;65952;51.440;-2.054;2023-05-07T05:33:37;24.35;;;9.45;;
77022;SDS011;65952;51.440;-2.054;2023-05-07T05:36:02;28.70;;;8.98;;
77022;SDS011;65952;51.440;-2.054;2023-05-07T05:38:31;33.20;;;9.25;;
77022;SDS011;65952;51.440;-2.054;2023-05-07T05:40:56;30.92;;;9.48;;
77022;SDS011;65952;51.440;-2.054;2023-05-07T05:43:22;43.75;;;9.40;;
77022;SDS011;65952;51.440;-2.054;2023-05-07T05:45:48;28.92;;;9.55;;
77022;SDS011;65952;51.440;-2.054;2023-05-07T05:48:13;17.67;;;8.70;;
77022;SDS011;65952;51.440;-2.054;2023-05-07T05:50:38;28.55;;;8.98;;
77022;SDS011;65952;51.440;-2.054;2023-05-07T05:53:04;22.10;;;8.30;;
77022;SDS011;65952;51.440;-2.054;2023-05-07T05:55:29;18.67;;;8.43;;
77022;SDS011;65952;51.440;-2.054;2023-05-07T05:57:57;19.75;;;8.23;;
77022;SDS011;65952;51.440;-2.054;2023-05-07T06:00:23;18.42;;;7.75;;
77022;SDS011;65952;51.440;-2.054;2023-05-07T06:02:48;18.17;;;8.35;;
77022;SDS011;65952;51.440;-2.054;2023-05-07T06:05:13;19.48;;;8.55;;
77022;SDS011;65952;51.440;-2.054;2023-05-07T06:07:40;15.30;;;8.05;;
77022;SDS011;65952;51.440;-2.054;2023-05-07T06:10:06;14.05;;;6.60;;
77022;SDS011;65952;51.440;-2.054;2023-05-07T06:12:31;14.27;;;6.95;;
77022;SDS011;65952;51.440;-2.054;2023-05-07T06:14:57;11.90;;;6.07;;
77022;SDS011;65952;51.440;-2.054;2023-05-07T06:17:22;15.63;;;5.95;;
77022;SDS011;65952;51.440;-2.054;2023-05-07T06:19:48;14.45;;;6.10;;
77022;SDS011;65952;51.440;-2.054;2023-05-07T06:22:13;11.80;;;5.75;;
77022;SDS011;65952;51.440;-2.054;2023-05-07T06:24:39;12.32;;;5.70;;
77022;SDS011;65952;51.440;-2.054;2023-05-07T06:27:04;13.02;;;5.85;;
77022;SDS011;65952;51.440;-2.054;2023-05-07T06:29:30;14.05;;;6.47;;
77022;SDS011;65952;51.440;-2.054;2023-05-07T06:32:05;14.25;;;6.60;;
77022;SDS011;65952;51.440;-2.054;2023-05-07T06:34:35;27.38;;;7.78;;
77022;SDS011;65952;51.440;-2.054;2023-05-07T06:37:00;18.35;;;7.22;;
77022;SDS011;65952;51.440;-2.054;2023-05-07T06:39:26;15.13;;;6.95;;
77022;SDS011;65952;51.440;-2.054;2023-05-07T06:41:51;14.27;;;6.55;;
77022;SDS011;65952;51.440;-2.054;2023-05-07T06:44:16;15.68;;;6.85;;
77022;SDS011;65952;51.440;-2.054;2023-05-07T06:46:42;15.18;;;7.03;;
77022;SDS011;65952;51.440;-2.054;2023-05-07T06:49:07;16.95;;;6.40;;
77022;SDS011;65952;51.440;-2.054;2023-05-07T06:51:32;15.52;;;6.88;;
77022;SDS011;65952;51.440;-2.054;2023-05-07T06:53:58;15.50;;;6.97;;
77022;SDS011;65952;51.440;-2.054;2023-05-07T06:56:24;16.45;;;7.40;;
77022;SDS011;65952;51.440;-2.054;2023-05-07T06:58:50;17.83;;;6.85;;
77022;SDS011;65952;51.440;-2.054;2023-05-07T07:01:15;11.57;;;6.13;;
77022;SDS011;65952;51.440;-2.054;2023-05-07T07:03:41;11.88;;;6.20;;
77022;SDS011;65952;51.440;-2.054;2023-05-07T07:06:06;11.38;;;5.40;;
77022;SDS011;65952;51.440;-2.054;2023-05-07T07:08:32;12.15;;;5.80;;
77022;SDS011;65952;51.440;-2.054;2023-05-07T07:10:57;16.35;;;6.68;;
77022;SDS011;65952;51.440;-2.054;2023-05-07T07:13:23;13.13;;;5.95;;
77022;SDS011;65952;51.440;-2.054;2023-05-07T07:15:48;10.07;;;5.25;;
77022;SDS011;65952;51.440;-2.054;2023-05-07T07:18:13;11.98;;;5.78;;
77022;SDS011;65952;51.440;-2.054;2023-05-07T07:20:39;11.65;;;5.25;;
77022;SDS011;65952;51.440;-2.054;2023-05-07T07:23:04;13.95;;;5.88;;
77022;SDS011;65952;51.440;-2.054;2023-05-07T07:25:30;12.68;;;5.50;;
77022;SDS011;65952;51.440;-2.054;2023-05-07T07:27:55;16.15;;;6.30;;
77022;SDS011;65952;51.440;-2.054;2023-05-07T07:30:21;14.85;;;6.45;;
77022;SDS011;65952;51.440;-2.054;2023-05-07T07:32:46;11.05;;;5.65;;
77022;SDS011;65952;51.440;-2.054;2023-05-07T07:35:12;10.77;;;5.75;;
77022;SDS011;65952;51.440;-2.054;2023-05-07T07:37:37;13.95;;;5.93;;
77022;SDS011;65952;51.440;-2.054;2023-05-07T07:40:02;11.95;;;4.95;;
77022;SDS011;65952;51.440;-2.054;2023-05-07T07:42:28;10.10;;;5.00;;
77022;SDS011;65952;51.440;-2.054;2023-05-07T07:44:54;11.02;;;5.65;;
77022;SDS011;65952;51.440;-2.054;2023-05-07T07:47:20;11.30;;;5.10;;
77022;SDS011;65952;51.440;-2.054;2023-05-07T07:49:45;11.43;;;5.05;;
77022;SDS011;65952;51.440;-2.054;2023-05-07T07:52:11;10.85;;;5.40;;
77022;SDS011;65952;51.440;-2.054;2023-05-07T07:54:36;11.65;;;5.05;;
77022;SDS011;65952;51.440;-2.054;2023-05-07T07:57:01;10.73;;;4.90;;
77022;SDS011;65952;51.440;-2.054;2023-05-07T07:59:27;12.82;;;5.55;;
77022;SDS011;65952;51.440;-2.054;2023-05-07T08:01:52;10.88;;;5.10;;
77022;SDS011;65952;51.440;-2.054;2023-05-07T08:04:20;10.43;;;4.82;;
77022;SDS011;65952;51.440;-2.054;2023-05-07T08:06:46;12.15;;;5.50;;
77022;SDS011;65952;51.440;-2.054;2023-05-07T08:09:11;11.40;;;5.43;;
77022;SDS011;65952;51.440;-2.054;2023-05-07T08:11:37;10.95;;;5.60;;
77022;SDS011;65952;51.440;-2.054;2023-05-07T08:14:03;11.05;;;5.10;;
77022;SDS011;65952;51.440;-2.054;2023-05-07T08:16:29;13.00;;;5.63;;
77022;SDS011;65952;51.440;-2.054;2023-05-07T08:18:54;11.13;;;5.55;;
77022;SDS011;65952;51.440;-2.054;2023-05-07T08:21:19;9.38;;;4.60;;
77022;SDS011;65952;51.440;-2.054;2023-05-07T08:23:45;11.02;;;4.80;;
77022;SDS011;65952;51.440;-2.054;2023-05-07T08:26:10;12.15;;;5.13;;
77022;SDS011;65952;51.440;-2.054;2023-05-07T08:28:36;10.82;;;4.88;;
77022;SDS011;65952;51.440;-2.054;2023-05-07T08:31:01;10.70;;;5.20;;
77022;SDS011;65952;51.440;-2.054;2023-05-07T08:33:27;11.98;;;5.72;;
77022;SDS011;65952;51.440;-2.054;2023-05-07T08:35:52;10.40;;;5.35;;
77022;SDS011;65952;51.440;-2.054;2023-05-07T08:38:18;11.48;;;5.85;;
77022;SDS011;65952;51.440;-2.054;2023-05-07T08:40:43;10.88;;;5.25;;
77022;SDS011;65952;51.440;-2.054;2023-05-07T08:43:08;11.57;;;5.45;;
77022;SDS011;65952;51.440;-2.054;2023-05-07T08:45:41;11.02;;;5.68;;
77022;SDS011;65952;51.440;-2.054;2023-05-07T08:48:14;14.07;;;5.90;;
77022;SDS011;65952;51.440;-2.054;2023-05-07T08:50:40;13.23;;;5.80;;
77022;SDS011;65952;51.440;-2.054;2023-05-07T08:53:06;10.20;;;5.68;;
77022;SDS011;65952;51.440;-2.054;2023-05-07T08:55:31;11.80;;;5.20;;
77022;SDS011;65952;51.440;-2.054;2023-05-07T08:57:58;11.10;;;5.28;;
77022;SDS011;65952;51.440;-2.054;2023-05-07T09:00:24;10.23;;;5.03;;
77022;SDS011;65952;51.440;-2.054;2023-05-07T09:02:49;13.02;;;6.05;;
77022;SDS011;65952;51.440;-2.054;2023-05-07T09:05:15;13.60;;;6.15;;
77022;SDS011;65952;51.440;-2.054;2023-05-07T09:07:40;15.05;;;6.22;;
77022;SDS011;65952;51.440;-2.054;2023-05-07T09:10:06;13.90;;;6.40;;
77022;SDS011;65952;51.440;-2.054;2023-05-07T09:12:32;12.15;;;5.38;;
77022;SDS011;65952;51.440;-2.054;2023-05-07T09:15:00;13.60;;;5.78;;
77022;SDS011;65952;51.440;-2.054;2023-05-07T09:17:26;13.75;;;6.70;;
77022;SDS011;65952;51.440;-2.054;2023-05-07T09:19:51;12.63;;;6.22;;
77022;SDS011;65952;51.440;-2.054;2023-05-07T09:22:18;18.73;;;7.35;;
77022;SDS011;65952;51.440;-2.054;2023-05-07T09:24:47;13.25;;;6.47;;
77022;SDS011;65952;51.440;-2.054;2023-05-07T09:27:14;16.70;;;7.47;;
77022;SDS011;65952;51.440;-2.054;2023-05-07T09:29:39;12.93;;;7.03;;
77022;SDS011;65952;51.440;-2.054;2023-05-07T09:32:06;13.63;;;6.53;;
77022;SDS011;65952;51.440;-2.054;2023-05-07T09:34:32;14.75;;;7.05;;
77022;SDS011;65952;51.440;-2.054;2023-05-07T09:36:59;12.82;;;6.40;;
77022;SDS011;65952;51.440;-2.054;2023-05-07T09:39:25;11.88;;;5.72;;
77022;SDS011;65952;51.440;-2.054;2023-05-07T09:41:51;12.00;;;5.50;;
77022;SDS011;65952;51.440;-2.054;2023-05-07T09:44:19;11.00;;;5.30;;
77022;SDS011;65952;51.440;-2.054;2023-05-07T09:46:45;11.10;;;5.18;;
77022;SDS011;65952;51.440;-2.054;2023-05-07T09:49:20;12.38;;;6.40;;
77022;SDS011;65952;51.440;-2.054;2023-05-07T09:51:50;8.50;;;4.80;;
77022;SDS011;65952;51.440;-2.054;2023-05-07T09:54:17;10.38;;;5.20;;
77022;SDS011;65952;51.440;-2.054;2023-05-07T09:56:44;10.48;;;5.32;;
77022;SDS011;65952;51.440;-2.054;2023-05-07T09:59:10;8.77;;;4.50;;
77022;SDS011;65952;51.440;-2.054;2023-05-07T10:01:38;9.93;;;4.38;;
77022;SDS011;65952;51.440;-2.054;2023-05-07T10:04:06;9.75;;;4.72;;
77022;SDS011;65952;51.440;-2.054;2023-05-07T10:06:33;11.57;;;5.18;;
77022;SDS011;65952;51.440;-2.054;2023-05-07T10:08:59;9.88;;;4.25;;
77022;SDS011;65952;51.440;-2.054;2023-05-07T10:11:25;10.50;;;4.53;;
77022;SDS011;65952;51.440;-2.054;2023-05-07T10:13:52;11.18;;;4.53;;
77022;SDS011;65952;51.440;-2.054;2023-05-07T10:16:18;8.70;;;4.68;;
77022;SDS011;65952;51.440;-2.054;2023-05-07T10:18:45;12.98;;;4.70;;
77022;SDS011;65952;51.440;-2.054;2023-05-07T10:21:18;15.27;;;5.20;;
77022;SDS011;65952;51.440;-2.054;2023-05-07T10:23:46;10.43;;;4.68;;
77022;SDS011;65952;51.440;-2.054;2023-05-07T10:28:46;9.75;;;4.72;;
77022;SDS011;65952;51.440;-2.054;2023-05-07T10:34:10;10.77;;;5.13;;
77022;SDS011;65952;51.440;-2.054;2023-05-07T10:36:38;10.50;;;5.35;;
77022;SDS011;65952;51.440;-2.054;2023-05-07T10:39:04;8.68;;;5.00;;
77022;SDS011;65952;51.440;-2.054;2023-05-07T10:41:31;10.13;;;4.97;;
77022;SDS011;65952;51.440;-2.054;2023-05-07T10:43:56;8.73;;;4.72;;
77022;SDS011;65952;51.440;-2.054;2023-05-07T10:46:22;11.88;;;5.05;;
77022;SDS011;65952;51.440;-2.054;2023-05-07T10:51:29;7.57;;;4.70;;
77022;SDS011;65952;51.440;-2.054;2023-05-07T10:56:40;13.07;;;4.40;;
77022;SDS011;65952;51.440;-2.054;2023-05-07T11:04:24;9.23;;;4.38;;
77022;SDS011;65952;51.440;-2.054;2023-05-07T11:15:11;8.65;;;4.18;;
77022;SDS011;65952;51.440;-2.054;2023-05-07T11:20:20;8.02;;;4.65;;
77022;SDS011;65952;51.440;-2.054;2023-05-07T11:22:46;10.60;;;5.47;;
77022;SDS011;65952;51.440;-2.054;2023-05-07T11:25:17;11.98;;;5.13;;
77022;SDS011;65952;51.440;-2.054;2023-05-07T11:27:44;11.43;;;6.30;;
77022;SDS011;65952;51.440;-2.054;2023-05-07T11:30:09;14.40;;;6.63;;
77022;SDS011;65952;51.440;-2.054;2023-05-07T11:32:36;14.23;;;7.13;;
77022;SDS011;65952;51.440;-2.054;2023-05-07T11:35:01;15.82;;;7.82;;
77022;SDS011;65952;51.440;-2.054;2023-05-07T11:37:27;14.90;;;7.88;;
77022;SDS011;65952;51.440;-2.054;2023-05-07T11:42:31;13.70;;;8.02;;
77022;SDS011;65952;51.440;-2.054;2023-05-07T11:45:02;12.75;;;7.53;;
77022;SDS011;65952;51.440;-2.054;2023-05-07T11:47:31;15.40;;;9.05;;
77022;SDS011;65952;51.440;-2.054;2023-05-07T11:50:01;15.32;;;7.53;;
77022;SDS011;65952;51.440;-2.054;2023-05-07T11:52:31;13.70;;;7.80;;
77022;SDS011;65952;51.440;-2.054;2023-05-07T11:54:57;12.27;;;6.80;;
77022;SDS011;65952;51.440;-2.054;2023-05-07T11:57:25;13.18;;;7.00;;
77022;SDS011;65952;51.440;-2.054;2023-05-07T11:59:54;14.32;;;8.02;;
77022;SDS011;65952;51.440;-2.054;2023-05-07T12:02:20;16.50;;;7.93;;
77022;SDS011;65952;51.440;-2.054;2023-05-07T12:04:46;15.98;;;7.82;;
77022;SDS011;65952;51.440;-2.054;2023-05-07T12:07:12;13.65;;;7.50;;
77022;SDS011;65952;51.440;-2.054;2023-05-07T12:09:41;14.15;;;7.38;;
77022;SDS011;65952;51.440;-2.054;2023-05-07T12:12:07;13.85;;;6.88;;
77022;SDS011;65952;51.440;-2.054;2023-05-07T12:14:33;17.38;;;7.57;;
77022;SDS011;65952;51.440;-2.054;2023-05-07T12:17:06;18.13;;;7.50;;
77022;SDS011;65952;51.440;-2.054;2023-05-07T12:19:33;13.90;;;7.35;;
77022;SDS011;65952;51.440;-2.054;2023-05-07T12:21:59;14.77;;;7.50;;
77022;SDS011;65952;51.440;-2.054;2023-05-07T12:24:25;14.82;;;7.47;;
77022;SDS011;65952;51.440;-2.054;2023-05-07T12:26:50;14.50;;;8.02;;
77022;SDS011;65952;51.440;-2.054;2023-05-07T12:29:16;13.25;;;6.70;;
77022;SDS011;65952;51.440;-2.054;2023-05-07T12:31:41;13.45;;;7.10;;
77022;SDS011;65952;51.440;-2.054;2023-05-07T12:34:07;13.48;;;6.70;;
77022;SDS011;65952;51.440;-2.054;2023-05-07T12:36:36;15.73;;;7.78;;
77022;SDS011;65952;51.440;-2.054;2023-05-07T12:39:04;16.25;;;7.75;;
77022;SDS011;65952;51.440;-2.054;2023-05-07T12:44:03;11.68;;;6.43;;
77022;SDS011;65952;51.440;-2.054;2023-05-07T12:46:29;10.00;;;5.55;;
77022;SDS011;65952;51.440;-2.054;2023-05-07T12:48:54;12.88;;;6.63;;
77022;SDS011;65952;51.440;-2.054;2023-05-07T12:51:20;12.32;;;6.43;;
77022;SDS011;65952;51.440;-2.054;2023-05-07T12:53:45;15.05;;;7.53;;
77022;SDS011;65952;51.440;-2.054;2023-05-07T12:56:11;11.90;;;6.40;;
77022;SDS011;65952;51.440;-2.054;2023-05-07T12:58:36;11.18;;;6.40;;
77022;SDS011;65952;51.440;-2.054;2023-05-07T13:01:06;11.90;;;6.07;;
77022;SDS011;65952;51.440;-2.054;2023-05-07T13:03:34;11.55;;;5.97;;
77022;SDS011;65952;51.440;-2.054;2023-05-07T13:06:08;9.38;;;5.10;;
77022;SDS011;65952;51.440;-2.054;2023-05-07T13:11:01;10.48;;;4.72;;
77022;SDS011;65952;51.440;-2.054;2023-05-07T13:13:29;8.20;;;4.07;;
77022;SDS011;65952;51.440;-2.054;2023-05-07T13:15:59;9.82;;;3.80;;
77022;SDS011;65952;51.440;-2.054;2023-05-07T13:18:25;7.03;;;3.33;;
77022;SDS011;65952;51.440;-2.054;2023-05-07T13:20:51;7.03;;;3.60;;
77022;SDS011;65952;51.440;-2.054;2023-05-07T13:23:17;7.75;;;3.33;;
77022;SDS011;65952;51.440;-2.054;2023-05-07T13:25:43;5.93;;;3.40;;
77022;SDS011;65952;51.440;-2.054;2023-05-07T13:28:09;8.45;;;4.00;;
77022;SDS011;65952;51.440;-2.054;2023-05-07T13:30:34;6.32;;;3.30;;
77022;SDS011;65952;51.440;-2.054;2023-05-07T13:33:00;7.88;;;3.53;;
77022;SDS011;65952;51.440;-2.054;2023-05-07T13:35:25;6.60;;;3.45;;
77022;SDS011;65952;51.440;-2.054;2023-05-07T13:37:51;7.25;;;3.70;;
77022;SDS011;65952;51.440;-2.054;2023-05-07T13:40:17;7.30;;;3.63;;
77022;SDS011;65952;51.440;-2.054;2023-05-07T13:42:44;7.65;;;3.38;;
77022;SDS011;65952;51.440;-2.054;2023-05-07T13:45:09;8.02;;;3.83;;
77022;SDS011;65952;51.440;-2.054;2023-05-07T13:50:38;6.88;;;3.80;;
77022;SDS011;65952;51.440;-2.054;2023-05-07T13:53:03;8.45;;;3.80;;
77022;SDS011;65952;51.440;-2.054;2023-05-07T13:55:29;8.40;;;3.65;;
77022;SDS011;65952;51.440;-2.054;2023-05-07T13:57:55;7.85;;;3.55;;
77022;SDS011;65952;51.440;-2.054;2023-05-07T14:00:22;9.25;;;4.53;;
77022;SDS011;65952;51.440;-2.054;2023-05-07T14:02:48;8.38;;;3.92;;
77022;SDS011;65952;51.440;-2.054;2023-05-07T14:05:14;8.13;;;4.35;;
77022;SDS011;65952;51.440;-2.054;2023-05-07T14:07:39;8.90;;;5.13;;
77022;SDS011;65952;51.440;-2.054;2023-05-07T14:10:05;9.55;;;5.00;;
77022;SDS011;65952;51.440;-2.054;2023-05-07T14:12:31;10.50;;;4.85;;
77022;SDS011;65952;51.440;-2.054;2023-05-07T14:14:57;8.65;;;4.88;;
77022;SDS011;65952;51.440;-2.054;2023-05-07T14:17:23;9.38;;;4.75;;
77022;SDS011;65952;51.440;-2.054;2023-05-07T14:19:51;11.63;;;5.20;;
77022;SDS011;65952;51.440;-2.054;2023-05-07T14:22:19;12.02;;;5.15;;
77022;SDS011;65952;51.440;-2.054;2023-05-07T14:24:48;8.40;;;4.93;;
77022;SDS011;65952;51.440;-2.054;2023-05-07T14:27:15;9.18;;;4.20;;
77022;SDS011;65952;51.440;-2.054;2023-05-07T14:29:41;9.90;;;4.80;;
77022;SDS011;65952;51.440;-2.054;2023-05-07T14:32:07;9.63;;;4.57;;
77022;SDS011;65952;51.440;-2.054;2023-05-07T14:34:33;9.43;;;4.60;;
77022;SDS011;65952;51.440;-2.054;2023-05-07T14:36:59;9.38;;;4.22;;
77022;SDS011;65952;51.440;-2.054;2023-05-07T14:39:25;6.43;;;3.60;;
77022;SDS011;65952;51.440;-2.054;2023-05-07T14:41:51;7.28;;;3.83;;
77022;SDS011;65952;51.440;-2.054;2023-05-07T14:44:16;10.45;;;3.75;;
77022;SDS011;65952;51.440;-2.054;2023-05-07T14:46:41;7.18;;;3.28;;
77022;SDS011;65952;51.440;-2.054;2023-05-07T14:49:07;5.80;;;3.10;;
77022;SDS011;65952;51.440;-2.054;2023-05-07T14:51:41;7.47;;;3.42;;
77022;SDS011;65952;51.440;-2.054;2023-05-07T14:54:06;7.25;;;3.10;;